createdAt,value
2022-11-15T00:00:35.904Z,46.00
2022-11-15T00:03:23.808Z,42.77
2022-11-15T00:06:09.820Z,45.07
2022-11-15T00:08:55.050Z,44.40
2022-11-15T00:11:40.271Z,47.33
2022-11-15T00:14:25.498Z,44.60
2022-11-15T00:17:10.678Z,45.57
2022-11-15T00:19:55.945Z,46.23
2022-11-15T00:22:41.382Z,48.03
2022-11-15T00:25:26.538Z,48.17
2022-11-15T00:28:11.789Z,42.97
2022-11-15T00:31:06.720Z,46.07
2022-11-15T00:33:51.840Z,46.67
2022-11-15T00:36:37.233Z,46.27
2022-11-15T00:39:23.225Z,46.30
2022-11-15T00:42:08.303Z,45.97
2022-11-15T00:44:53.529Z,45.90
2022-11-15T00:47:38.979Z,45.50
2022-11-15T00:50:24.298Z,44.90
2022-11-15T00:53:09.526Z,47.57
2022-11-15T00:55:54.921Z,47.70
2022-11-15T00:58:40.465Z,47.67
2022-11-15T01:01:25.783Z,48.73
2022-11-15T01:04:11.465Z,45.60
2022-11-15T01:06:57.064Z,46.60
2022-11-15T01:09:42.368Z,48.63
2022-11-15T01:12:27.922Z,49.43
2022-11-15T01:15:13.499Z,48.93
2022-11-15T01:17:58.696Z,51.73
2022-11-15T01:20:44.340Z,51.93
2022-11-15T01:23:30.331Z,50.90
2022-11-15T01:26:16.588Z,50.80
2022-11-15T01:29:01.903Z,51.40
2022-11-15T01:31:47.328Z,51.50
2022-11-15T01:34:32.435Z,50.53
2022-11-15T01:37:17.549Z,52.47
2022-11-15T01:58:02.178Z,58.80
2022-11-15T02:00:48.903Z,60.27
2022-11-15T02:03:45.301Z,60.70
2022-11-15T02:06:31.143Z,61.80
2022-11-15T02:09:17.652Z,59.13
2022-11-15T02:12:03.366Z,60.37
2022-11-15T02:14:53.782Z,58.20
2022-11-15T02:18:37.907Z,55.23
2022-11-15T02:22:17.328Z,50.70
2022-11-15T02:25:30.007Z,47.53
2022-11-15T02:28:18.479Z,44.07
2022-11-15T02:31:22.249Z,42.93
2022-11-15T02:34:37.689Z,43.77
2022-11-15T02:37:52.604Z,42.00
2022-11-15T02:40:52.708Z,39.53
2022-11-15T02:44:01.757Z,41.17
2022-11-15T02:47:16.397Z,34.77
2022-11-15T02:50:07.707Z,37.27
2022-11-15T02:52:53.410Z,38.40
2022-11-15T02:55:44.273Z,37.23
2022-11-15T02:58:47.540Z,38.03
2022-11-15T03:01:46.442Z,38.43
2022-11-15T03:04:40.233Z,36.50
2022-11-15T03:07:45.203Z,38.63
2022-11-15T03:10:50.468Z,38.40
2022-11-15T03:13:45.162Z,39.53
2022-11-15T03:16:42.942Z,37.20
2022-11-15T03:19:34.283Z,40.60
2022-11-15T03:22:23.856Z,41.30
2022-11-15T03:25:15.056Z,39.63
2022-11-15T03:28:05.667Z,39.40
2022-11-15T03:30:54.488Z,39.10
2022-11-15T03:33:40.828Z,39.47
2022-11-15T03:36:28.075Z,39.63
2022-11-15T03:39:20.173Z,40.87
2022-11-15T03:42:33.568Z,40.50
2022-11-15T03:45:23.068Z,41.03
2022-11-15T03:48:15.066Z,41.20
2022-11-15T03:51:00.883Z,40.50
2022-11-15T03:53:46.951Z,37.70
2022-11-15T03:56:32.359Z,37.27
2022-11-15T03:59:17.712Z,38.27
2022-11-15T04:02:03.083Z,38.23
2022-11-15T04:04:48.236Z,37.57
2022-11-15T04:07:33.292Z,38.27
2022-11-15T04:10:19.244Z,39.80
2022-11-15T04:13:04.447Z,39.10
2022-11-15T04:15:49.977Z,40.37
2022-11-15T04:18:35.465Z,40.03
2022-11-15T04:21:39.544Z,38.50
2022-11-15T04:24:24.514Z,40.70
2022-11-15T04:27:10.036Z,40.97
2022-11-15T04:29:55.352Z,41.50
2022-11-15T04:32:40.802Z,42.70
2022-11-15T04:35:26.276Z,42.57
2022-11-15T04:38:12.816Z,44.37
2022-11-15T04:40:58.179Z,43.80
2022-11-15T04:43:43.400Z,46.60
2022-11-15T04:46:29.058Z,44.60
2022-11-15T04:49:14.374Z,44.40
2022-11-15T04:52:00.168Z,44.27
2022-11-15T04:54:45.722Z,44.03
2022-11-15T04:57:31.104Z,46.00
2022-11-15T05:00:17.966Z,48.77
2022-11-15T05:03:21.668Z,46.33
2022-11-15T05:06:07.656Z,47.53
2022-11-15T05:08:53.207Z,47.77
2022-11-15T05:11:38.689Z,46.47
2022-11-15T05:14:24.205Z,46.10
2022-11-15T05:17:09.600Z,44.85
2022-11-15T05:19:56.221Z,45.65
2022-11-15T05:22:41.653Z,45.57
2022-11-15T05:25:27.141Z,47.17
2022-11-15T05:28:12.430Z,43.83
2022-11-15T05:31:02.764Z,44.90
2022-11-15T05:33:48.075Z,45.80
2022-11-15T05:36:43.619Z,44.87
2022-11-15T05:39:28.904Z,45.63
2022-11-15T05:42:16.122Z,45.30
2022-11-15T05:45:03.783Z,49.50
2022-11-15T05:47:50.308Z,47.70
2022-11-15T05:50:39.718Z,51.37
2022-11-15T05:53:26.914Z,50.70
2022-11-15T05:56:13.479Z,53.87
2022-11-15T05:59:00.060Z,51.78
2022-11-15T06:01:46.129Z,52.33
2022-11-15T06:04:31.719Z,53.30
2022-11-15T06:07:17.112Z,51.30
2022-11-15T06:10:02.916Z,54.83
2022-11-15T06:12:48.030Z,54.43
2022-11-15T06:15:35.356Z,53.78
2022-11-15T06:18:20.479Z,53.57
2022-11-15T06:21:06.293Z,52.25
2022-11-15T06:23:51.637Z,53.40
2022-11-15T06:26:36.989Z,54.90
2022-11-15T06:29:22.384Z,54.57
2022-11-15T06:32:07.788Z,56.13
2022-11-15T06:34:52.929Z,54.65
2022-11-15T06:37:38.444Z,57.78
2022-11-15T06:40:23.815Z,56.60
2022-11-15T06:43:09.267Z,56.10
2022-11-15T06:45:54.590Z,57.72
2022-11-15T06:48:39.705Z,58.30
2022-11-15T06:51:24.776Z,58.67
2022-11-15T06:54:10.188Z,57.47
2022-11-15T06:56:55.615Z,56.87
2022-11-15T06:59:40.947Z,58.23
2022-11-15T07:02:26.818Z,58.20
2022-11-15T07:05:12.442Z,59.70
2022-11-15T07:07:59.082Z,57.87
2022-11-15T07:10:44.600Z,61.37
2022-11-15T07:13:34.686Z,58.70
2022-11-15T07:16:20.651Z,61.17
2022-11-15T07:19:06.072Z,58.88
2022-11-15T07:21:51.209Z,59.65
2022-11-15T07:24:36.238Z,57.92
2022-11-15T07:27:21.758Z,60.08
2022-11-15T07:30:07.606Z,58.03
2022-11-15T07:32:55.037Z,58.58
2022-11-15T07:35:40.294Z,57.08
2022-11-15T07:38:25.649Z,56.95
2022-11-15T07:41:11.132Z,55.10
2022-11-15T07:43:56.389Z,54.95
2022-11-15T07:46:41.818Z,54.78
2022-11-15T07:49:27.070Z,55.10
2022-11-15T07:52:12.214Z,55.38
2022-11-15T07:54:57.606Z,55.20
2022-11-15T07:57:43.032Z,53.83
2022-11-15T08:00:28.740Z,53.55
2022-11-15T08:03:16.566Z,53.80
2022-11-15T08:06:02.183Z,53.33
2022-11-15T08:08:48.336Z,52.25
2022-11-15T08:11:33.503Z,53.63
2022-11-15T08:14:18.961Z,50.60
2022-11-15T08:17:04.365Z,51.40
2022-11-15T08:19:49.424Z,50.72
2022-11-15T08:22:35.028Z,50.20
2022-11-15T08:25:20.193Z,50.53
2022-11-15T08:28:07.943Z,48.67
2022-11-15T08:30:53.072Z,48.83
2022-11-15T08:33:38.319Z,46.75
2022-11-15T08:36:23.862Z,46.90
2022-11-15T08:39:13.579Z,46.90
2022-11-15T08:41:59.424Z,47.67
2022-11-15T08:44:44.522Z,47.47
2022-11-15T08:47:29.836Z,45.22
2022-11-15T08:50:15.625Z,45.60
2022-11-15T08:53:09.546Z,44.75
2022-11-15T08:55:54.758Z,46.28
2022-11-15T08:58:40.291Z,43.47
2022-11-15T09:01:25.916Z,45.20
2022-11-15T09:04:11.215Z,42.83
2022-11-15T09:06:57.032Z,44.25
2022-11-15T09:09:42.708Z,44.00
2022-11-15T09:12:28.087Z,43.17
2022-11-15T09:15:13.546Z,43.78
2022-11-15T09:18:00.504Z,42.45
2022-11-15T09:20:45.686Z,42.55
2022-11-15T09:23:31.397Z,41.90
2022-11-15T09:26:16.425Z,41.60
2022-11-15T09:29:02.475Z,42.28
2022-11-15T09:31:47.955Z,41.85
2022-11-15T09:34:33.305Z,43.58
2022-11-15T09:37:18.766Z,41.85
2022-11-15T09:40:04.754Z,41.72
2022-11-15T09:43:01.743Z,39.22
2022-11-15T09:46:12.831Z,39.60
2022-11-15T09:49:02.297Z,39.60
2022-11-15T09:51:35.698Z,39.13
2022-11-15T09:57:07.056Z,37.33
2022-11-15T10:00:45.338Z,38.85
